»·PEaware :: DAL250 KTPA-KATL

DAL250 :: KTPA-KATL

FLIGHT INFORMATION

Flight Status: Arrived
Operator:
Delta Air Lines
More flights by this operator :: More flights under this callsign
Pilot: Andrew J. (13363)
Aircraft: AIRBUS A320
(A320)
More flights by this aircraft type
Origin: KTPA Tampa Intl
United States
Destination: KATL Hartsfield-Jackson Atlanta
United States
More flights between these airports :: More routes between these airports
Route: BAYPO7 AMG LARZZ JJEDI2
File this flight plan on PilotEdge
Remarks: PBN / A1B1C1D1O1S1 NAV / RNVD1E2A1 DOF / 181116 REG / N311US EET / KZJX0000 KZTL0033 OPR / DAL PER / C RMK / TCAS SIMBRIEF
Altitude:
(Current/Filed)
34,000ft
Speed:
(Current/Filed)
467kts
Departed: 16-Nov-18 01:37 PM
Arrived: 16-Nov-18 02:37 PM
Distance/Time
Traveled:
354nm/0:59
Distance/Time
To Go:
Arrived

Flight Plot

Page will automatically refresh every two minutes.

Flight plan parsing failed; only flown route is shown


Map Options




Map Legend


Flown Route
Filed Route
Departure Airport
Arrival Airport
Navaid (VOR, NDB)
Fix

Horizontal Profiles

Position Reports

Time Latitude Longitude Heading Altitude Ground
Speed
16-Nov-18 13:23 27.980336 -82.538829 96 22ft 0kts
16-Nov-18 13:24 27.980336 -82.538829 96 22ft 0kts
16-Nov-18 13:25 27.980336 -82.538829 96 22ft 0kts
16-Nov-18 13:26 27.980449 -82.539404 123 22ft 2kts
16-Nov-18 13:27 27.980902 -82.539690 180 22ft 0kts
16-Nov-18 13:28 27.980960 -82.539686 181 22ft 0kts
16-Nov-18 13:29 27.980960 -82.539686 181 22ft 0kts
16-Nov-18 13:30 27.980960 -82.539686 181 22ft 0kts
16-Nov-18 13:31 27.980960 -82.539686 181 22ft 0kts
16-Nov-18 13:32 27.980960 -82.539686 181 22ft 0kts
16-Nov-18 13:33 27.980960 -82.539686 181 22ft 0kts
16-Nov-18 13:34 27.980960 -82.539686 181 22ft 0kts
16-Nov-18 13:35 27.980960 -82.539686 181 22ft 0kts
16-Nov-18 13:36 27.979269 -82.540561 179 21ft 15kts
16-Nov-18 13:37 27.972458 -82.540804 182 20ft 27kts
16-Nov-18 13:38 27.965009 -82.541062 181 24ft 27kts
16-Nov-18 13:39 27.963619 -82.542353 2 25ft 4kts
16-Nov-18 13:40 27.988990 -82.541444 0 748ft 175kts
16-Nov-18 13:41 28.043167 -82.548027 349 3428ft 230kts
16-Nov-18 13:42 28.112722 -82.560881 348 6202ft 270kts
16-Nov-18 13:43 28.188406 -82.574212 347 9280ft 285kts
16-Nov-18 13:44 28.272772 -82.578206 354 11282ft 336kts
16-Nov-18 13:45 28.375063 -82.581229 355 12217ft 397kts
16-Nov-18 13:46 28.489023 -82.583984 355 13812ft 417kts
16-Nov-18 13:47 28.596203 -82.586645 354 15342ft 428kts
16-Nov-18 13:48 28.715712 -82.594844 348 16876ft 435kts
16-Nov-18 13:49 28.836877 -82.611730 347 18283ft 445kts
16-Nov-18 13:50 28.960996 -82.629066 347 19549ft 454kts
16-Nov-18 13:51 29.086505 -82.646628 347 20915ft 458kts
16-Nov-18 13:52 29.212397 -82.664308 347 21997ft 465kts
16-Nov-18 13:53 29.319945 -82.679446 347 22782ft 471kts
16-Nov-18 13:54 29.451511 -82.693090 354 23649ft 485kts
16-Nov-18 13:55 29.610154 -82.692046 354 24552ft 493kts
16-Nov-18 13:56 29.724609 -82.691331 354 25120ft 499kts
16-Nov-18 13:57 29.886503 -82.690305 353 26088ft 500kts
16-Nov-18 13:58 30.025682 -82.689426 353 26965ft 501kts
16-Nov-18 13:59 30.141067 -82.688706 353 27675ft 502kts
16-Nov-18 14:00 30.280043 -82.687837 352 28501ft 503kts
16-Nov-18 14:01 30.420169 -82.686960 352 29323ft 504kts
16-Nov-18 14:02 30.560517 -82.677590 1 30127ft 515kts
16-Nov-18 14:03 30.702112 -82.653172 1 30913ft 516kts
16-Nov-18 14:04 30.843959 -82.628695 1 31688ft 518kts
16-Nov-18 14:05 30.986341 -82.604045 0 32190ft 518kts
16-Nov-18 14:06 31.125717 -82.579845 0 32187ft 517kts
16-Nov-18 14:07 31.267751 -82.555115 0 32185ft 518kts
16-Nov-18 14:08 31.410021 -82.530266 0 32186ft 518kts
16-Nov-18 14:09 31.550582 -82.521802 336 32187ft 490kts
16-Nov-18 14:10 31.671478 -82.582657 324 32186ft 471kts
16-Nov-18 14:11 31.789448 -82.648064 323 32186ft 471kts
16-Nov-18 14:12 31.907548 -82.713708 323 32185ft 470kts
16-Nov-18 14:13 32.025371 -82.779397 323 32185ft 470kts
16-Nov-18 14:14 32.141598 -82.844374 323 32190ft 469kts
16-Nov-18 14:15 32.259237 -82.910335 323 32210ft 470kts
16-Nov-18 14:16 32.375898 -82.977896 316 32219ft 460kts
16-Nov-18 14:17 32.471338 -83.072336 308 32214ft 445kts
16-Nov-18 14:18 32.564294 -83.168272 308 32215ft 445kts
16-Nov-18 14:19 32.657644 -83.265023 308 32211ft 445kts
16-Nov-18 14:20 32.750490 -83.361600 308 32195ft 445kts
16-Nov-18 14:21 32.843697 -83.458828 308 32186ft 445kts
16-Nov-18 14:22 32.936395 -83.555806 308 32184ft 445kts
16-Nov-18 14:23 33.028818 -83.652575 308 32192ft 434kts
16-Nov-18 14:24 33.120846 -83.749333 309 32080ft 442kts
16-Nov-18 14:25 33.204477 -83.839056 305 30577ft 371kts
16-Nov-18 14:26 33.274572 -83.922726 306 27933ft 348kts
16-Nov-18 14:27 33.340892 -84.002058 307 25172ft 330kts
16-Nov-18 14:28 33.430185 -84.030343 351 22474ft 349kts
16-Nov-18 14:29 33.524233 -84.032532 351 19899ft 331kts
16-Nov-18 14:30 33.596629 -84.069954 287 17593ft 262kts
16-Nov-18 14:31 33.560271 -84.131219 183 14370ft 288kts
16-Nov-18 14:32 33.514839 -84.064723 73 11510ft 289kts
16-Nov-18 14:33 33.571131 -84.032653 321 8732ft 247kts
16-Nov-18 14:34 33.592052 -84.104460 282 6682ft 234kts
16-Nov-18 14:35 33.608847 -84.179323 289 4678ft 237kts
16-Nov-18 14:36 33.630409 -84.252949 279 3069ft 234kts
16-Nov-18 14:37 33.631902 -84.328080 271 2485ft 214kts
16-Nov-18 14:38 33.631820 -84.392434 270 1495ft 169kts
16-Nov-18 14:39 33.631801 -84.438160 272 1033ft 51kts
16-Nov-18 14:40 33.635701 -84.441693 55 1033ft 17kts
16-Nov-18 14:41 33.635815 -84.434985 87 1033ft 19kts
16-Nov-18 14:42 33.636326 -84.434233 353 1033ft 11kts
16-Nov-18 14:43 33.638754 -84.434747 274 1033ft 3kts
16-Nov-18 14:44 33.638740 -84.435391 269 1033ft 0kts
16-Nov-18 14:45 33.638740 -84.435391 269 1033ft 0kts
16-Nov-18 14:46 33.638740 -84.435391 269 1033ft 0kts
16-Nov-18 14:47 33.638740 -84.435391 269 1033ft 0kts
16-Nov-18 14:48 33.638740 -84.435391 269 1033ft 0kts
16-Nov-18 14:49 33.638740 -84.435391 269 1033ft 0kts
16-Nov-18 14:50 33.638740 -84.435391 269 1033ft 0kts
16-Nov-18 14:51 33.638740 -84.435391 269 1033ft 0kts
16-Nov-18 14:52 33.638740 -84.435391 269 1033ft 0kts
16-Nov-18 14:53 33.638740 -84.435391 269 1033ft 0kts
16-Nov-18 14:54 33.638740 -84.435391 269 1033ft 0kts

Navigation Log

Ident Type
Flight plan parsing failed, navigation log unavailable